Time,TemperatureF,DewpointF,PressureIn,WindDirection,WindDirectionDegrees,WindSpeedMPH,WindSpeedGustMPH,Humidity,HourlyPrecipIn,Conditions,Clouds,dailyrainin,SoftwareType,DateUTC
2013-03-06 00:02:00,60.0,-99.9,29.72,SW,235,9.0,16.0,-999,-99.99,,,-99.99,,2013-03-06 05:02:00,
2013-03-06 00:12:00,59.0,-99.9,29.72,SW,230,8.0,13.0,-999,-99.99,,,-99.99,,2013-03-06 05:12:00,
2013-03-06 00:23:00,59.0,-99.9,29.72,SW,214,8.0,11.0,-999,-99.99,,,-99.99,,2013-03-06 05:23:00,
2013-03-06 00:32:00,59.0,-99.9,29.71,SW,232,7.0,12.0,-999,-99.99,,,-99.99,,2013-03-06 05:32:00,
2013-03-06 00:42:00,59.0,-99.9,29.72,SW,235,5.0,11.0,-999,-99.99,,,-99.99,,2013-03-06 05:42:00,
2013-03-06 00:52:00,59.0,-99.9,29.71,SW,233,8.0,12.0,-999,-99.99,,,-99.99,,2013-03-06 05:52:00,
2013-03-06 01:02:00,59.0,-99.9,29.71,WSW,244,7.0,13.0,-999,-99.99,,,-99.99,,2013-03-06 06:02:00,
2013-03-06 01:12:00,58.0,-99.9,29.70,WSW,239,9.0,17.0,-999,-99.99,,,-99.99,,2013-03-06 06:12:00,
2013-03-06 01:22:00,58.0,-99.9,29.70,WSW,241,5.0,14.0,-999,-99.99,,,-99.99,,2013-03-06 06:22:00,
2013-03-06 01:32:00,58.0,-99.9,29.70,WSW,242,6.0,14.0,-999,-99.99,,,-99.99,,2013-03-06 06:32:00,
2013-03-06 01:42:00,58.0,-99.9,29.70,WSW,239,9.0,16.0,-999,-99.99,,,-99.99,,2013-03-06 06:42:00,
2013-03-06 01:52:00,58.0,-99.9,29.70,WSW,249,8.0,14.0,-999,-99.99,,,-99.99,,2013-03-06 06:52:00,
2013-03-06 02:02:00,58.0,-99.9,29.70,WSW,254,9.0,14.0,-999,-99.99,,,-99.99,,2013-03-06 07:02:00,
2013-03-06 02:11:00,57.0,-99.9,29.70,WSW,257,10.0,18.0,-999,-99.99,,,-99.99,,2013-03-06 07:11:00,
2013-03-06 02:22:00,57.0,-99.9,29.70,WSW,253,9.0,16.0,-999,-99.99,,,-99.99,,2013-03-06 07:22:00,
2013-03-06 02:32:00,57.0,-99.9,29.70,WSW,249,13.0,20.0,-999,-99.99,,,-99.99,,2013-03-06 07:32:00,
2013-03-06 02:42:00,57.0,-99.9,29.70,WSW,256,13.0,21.0,-999,-99.99,,,-99.99,,2013-03-06 07:42:00,
2013-03-06 02:52:00,55.0,-99.9,29.71,West,277,15.0,28.0,-999,-99.99,,,-99.99,,2013-03-06 07:52:00,
2013-03-06 03:01:00,54.0,-99.9,29.71,West,277,17.0,26.0,-999,-99.99,,,-99.99,,2013-03-06 08:01:00,
2013-03-06 03:11:00,53.0,-99.9,29.72,West,270,14.0,32.0,-999,-99.99,,,-99.99,,2013-03-06 08:11:00,
2013-03-06 03:22:00,53.0,-99.9,29.72,West,271,9.0,20.0,-999,-99.99,,,-99.99,,2013-03-06 08:22:00,
2013-03-06 03:32:00,50.0,-99.9,29.73,West,277,19.0,30.0,-999,-99.99,,,-99.99,,2013-03-06 08:32:00,
2013-03-06 03:42:00,49.0,-99.9,29.74,WNW,284,8.0,17.0,-999,-99.99,,,-99.99,,2013-03-06 08:42:00,
2013-03-06 03:52:00,49.0,-99.9,29.74,West,279,10.0,20.0,-999,-99.99,,,-99.99,,2013-03-06 08:52:00,
2013-03-06 04:02:00,47.0,-99.9,29.75,West,274,19.0,28.0,-999,-99.99,,,-99.99,,2013-03-06 09:02:00,
2013-03-06 04:12:00,46.0,-99.9,29.76,West,277,17.0,29.0,-999,-99.99,,,-99.99,,2013-03-06 09:12:00,
2013-03-06 04:22:00,46.0,-99.9,29.76,WNW,283,19.0,33.0,-999,-99.99,,,-99.99,,2013-03-06 09:22:00,
2013-03-06 04:32:00,46.0,-99.9,29.77,WNW,295,14.0,28.0,-999,-99.99,,,-99.99,,2013-03-06 09:32:00,
2013-03-06 04:42:00,45.0,-99.9,29.78,West,279,14.0,29.0,-999,-99.99,,,-99.99,,2013-03-06 09:42:00,
2013-03-06 04:52:00,45.0,-99.9,29.78,West,279,16.0,28.0,-999,-99.99,,,-99.99,,2013-03-06 09:52:00,
2013-03-06 05:02:00,45.0,-99.9,29.78,West,273,15.0,26.0,-999,-99.99,,,-99.99,,2013-03-06 10:02:00,
2013-03-06 05:11:00,44.0,-99.9,29.78,West,274,15.0,27.0,-999,-99.99,,,-99.99,,2013-03-06 10:11:00,
2013-03-06 05:22:00,44.0,-99.9,29.79,West,271,15.0,24.0,-999,-99.99,,,-99.99,,2013-03-06 10:22:00,
2013-03-06 05:32:00,44.0,-99.9,29.79,West,266,15.0,21.0,-999,-99.99,,,-99.99,,2013-03-06 10:32:00,
2013-03-06 05:42:00,44.0,-99.9,29.79,West,270,14.0,23.0,-999,-99.99,,,-99.99,,2013-03-06 10:42:00,
2013-03-06 05:52:00,44.0,-99.9,29.79,West,272,12.0,28.0,-999,-99.99,,,-99.99,,2013-03-06 10:52:00,
2013-03-06 06:02:00,44.0,-99.9,29.80,West,276,8.0,21.0,-999,-99.99,,,-99.99,,2013-03-06 11:02:00,
2013-03-06 06:11:00,43.0,-99.9,29.79,West,269,14.0,22.0,-999,-99.99,,,-99.99,,2013-03-06 11:11:00,
2013-03-06 06:23:00,43.0,-99.9,29.80,West,263,11.0,17.0,-999,-99.99,,,-99.99,,2013-03-06 11:23:00,
2013-03-06 06:32:00,43.0,-99.9,29.80,West,269,15.0,22.0,-999,-99.99,,,-99.99,,2013-03-06 11:32:00,
2013-03-06 06:43:00,43.0,-99.9,29.80,West,260,13.0,26.0,-999,-99.99,,,-99.99,,2013-03-06 11:43:00,
2013-03-06 06:53:00,43.0,-99.9,29.80,WSW,256,13.0,22.0,-999,-99.99,,,-99.99,,2013-03-06 11:53:00,
2013-03-06 07:02:00,43.0,-99.9,29.80,WSW,252,11.0,17.0,-999,-99.99,,,-99.99,,2013-03-06 12:02:00,
2013-03-06 07:12:00,42.0,-99.9,29.81,West,267,13.0,19.0,-999,-99.99,,,-99.99,,2013-03-06 12:12:00,
2013-03-06 07:22:00,42.0,-99.9,29.81,West,263,15.0,24.0,-999,-99.99,,,-99.99,,2013-03-06 12:22:00,
2013-03-06 07:33:00,42.0,-99.9,29.81,WSW,258,17.0,24.0,-999,-99.99,,,-99.99,,2013-03-06 12:33:00,
2013-03-06 07:43:00,42.0,-99.9,29.82,West,262,13.0,21.0,-999,-99.99,,,-99.99,,2013-03-06 12:43:00,
2013-03-06 07:53:00,42.0,-99.9,29.82,West,262,17.0,25.0,-999,-99.99,,,-99.99,,2013-03-06 12:53:00,
2013-03-06 08:02:00,43.0,-99.9,29.83,West,270,16.0,24.0,-999,-99.99,,,-99.99,,2013-03-06 13:02:00,
2013-03-06 08:12:00,43.0,-99.9,29.83,West,274,11.0,22.0,-999,-99.99,,,-99.99,,2013-03-06 13:12:00,
2013-03-06 08:22:00,43.0,-99.9,29.83,West,263,13.0,22.0,-999,-99.99,,,-99.99,,2013-03-06 13:22:00,
2013-03-06 08:32:00,43.0,-99.9,29.84,West,263,16.0,24.0,-999,-99.99,,,-99.99,,2013-03-06 13:32:00,
2013-03-06 08:42:00,43.0,-99.9,29.84,West,279,13.0,23.0,-999,-99.99,,,-99.99,,2013-03-06 13:42:00,
2013-03-06 08:52:00,44.0,-99.9,29.84,West,270,11.0,18.0,-999,-99.99,,,-99.99,,2013-03-06 13:52:00,
2013-03-06 09:02:00,43.0,-99.9,29.84,West,264,11.0,19.0,-999,-99.99,,,-99.99,,2013-03-06 14:02:00,
2013-03-06 09:12:00,43.0,-99.9,29.85,West,267,13.0,23.0,-999,-99.99,,,-99.99,,2013-03-06 14:12:00,
2013-03-06 09:22:00,43.0,-99.9,29.85,West,262,11.0,17.0,-999,-99.99,,,-99.99,,2013-03-06 14:22:00,
2013-03-06 09:32:00,43.0,-99.9,29.85,West,268,13.0,29.0,-999,-99.99,,,-99.99,,2013-03-06 14:32:00,
2013-03-06 09:42:00,44.0,-99.9,29.85,West,278,14.0,26.0,-999,-99.99,,,-99.99,,2013-03-06 14:42:00,
2013-03-06 09:53:00,44.0,-99.9,29.84,West,275,10.0,16.0,-999,-99.99,,,-99.99,,2013-03-06 14:53:00,
2013-03-06 10:02:00,45.0,-99.9,29.85,WNW,295,15.0,29.0,-999,-99.99,,,-99.99,,2013-03-06 15:02:00,
2013-03-06 10:12:00,44.0,-99.9,29.85,West,268,15.0,27.0,-999,-99.99,,,-99.99,,2013-03-06 15:12:00,
2013-03-06 10:22:00,45.0,-99.9,29.85,WNW,293,18.0,30.0,-999,-99.99,,,-99.99,,2013-03-06 15:22:00,
2013-03-06 10:32:00,45.0,-99.9,29.86,WNW,297,14.0,31.0,-999,-99.99,,,-99.99,,2013-03-06 15:32:00,
2013-03-06 10:42:00,46.0,-99.9,29.86,NW,308,14.0,27.0,-999,-99.99,,,-99.99,,2013-03-06 15:42:00,
2013-03-06 10:52:00,45.0,-99.9,29.86,NW,304,19.0,29.0,-999,-99.99,,,-99.99,,2013-03-06 15:52:00,
2013-03-06 11:02:00,47.0,-99.9,29.87,WNW,295,9.0,20.0,-999,-99.99,,,-99.99,,2013-03-06 16:02:00,
2013-03-06 11:12:00,45.0,-99.9,29.87,West,279,20.0,29.0,-999,-99.99,,,-99.99,,2013-03-06 16:12:00,
2013-03-06 11:22:00,46.0,-99.9,29.87,WNW,286,14.0,27.0,-999,-99.99,,,-99.99,,2013-03-06 16:22:00,
2013-03-06 11:32:00,47.0,-99.9,29.87,WNW,297,14.0,27.0,-999,-99.99,,,-99.99,,2013-03-06 16:32:00,
2013-03-06 11:42:00,48.0,-99.9,29.86,NW,317,9.0,26.0,-999,-99.99,,,-99.99,,2013-03-06 16:42:00,
2013-03-06 11:52:00,47.0,-99.9,29.86,West,273,14.0,23.0,-999,-99.99,,,-99.99,,2013-03-06 16:52:00,
2013-03-06 12:01:00,48.0,-99.9,29.86,WNW,303,9.0,26.0,-999,-99.99,,,-99.99,,2013-03-06 17:01:00,
2013-03-06 12:11:00,47.0,-99.9,29.86,West,266,15.0,21.0,-999,-99.99,,,-99.99,,2013-03-06 17:11:00,
2013-03-06 12:22:00,49.0,-99.9,29.86,WNW,299,13.0,26.0,-999,-99.99,,,-99.99,,2013-03-06 17:22:00,
2013-03-06 12:32:00,49.0,-99.9,29.85,NW,314,17.0,30.0,-999,-99.99,,,-99.99,,2013-03-06 17:32:00,
2013-03-06 12:42:00,49.0,-99.9,29.85,West,272,12.0,23.0,-999,-99.99,,,-99.99,,2013-03-06 17:42:00,
2013-03-06 12:53:00,49.0,-99.9,29.85,WNW,294,15.0,27.0,-999,-99.99,,,-99.99,,2013-03-06 17:53:00,
2013-03-06 13:02:00,50.0,-99.9,29.85,WNW,298,15.0,26.0,-999,-99.99,,,-99.99,,2013-03-06 18:02:00,
2013-03-06 13:29:00,50.0,-99.9,29.84,WNW,302,11.0,25.0,-999,-99.99,,,-99.99,,2013-03-06 18:29:00,
2013-03-06 13:42:00,50.0,-99.9,29.83,WNW,292,14.0,30.0,-999,-99.99,,,-99.99,,2013-03-06 18:42:00,
2013-03-06 13:53:00,50.0,-99.9,29.83,WNW,291,16.0,24.0,-999,-99.99,,,-99.99,,2013-03-06 18:53:00,
2013-03-06 14:02:00,50.0,-99.9,29.83,West,281,18.0,28.0,-999,-99.99,,,-99.99,,2013-03-06 19:02:00,
2013-03-06 14:11:00,51.0,-99.9,29.82,NW,309,15.0,26.0,-999,-99.99,,,-99.99,,2013-03-06 19:11:00,
2013-03-06 14:22:00,52.0,-99.9,29.83,WNW,302,11.0,28.0,-999,-99.99,,,-99.99,,2013-03-06 19:22:00,
2013-03-06 14:33:00,51.0,-99.9,29.83,WNW,301,14.0,28.0,-999,-99.99,,,-99.99,,2013-03-06 19:33:00,
2013-03-06 14:43:00,51.0,-99.9,29.83,NW,304,16.0,27.0,-999,-99.99,,,-99.99,,2013-03-06 19:43:00,
2013-03-06 14:53:00,52.0,-99.9,29.83,NW,311,14.0,24.0,-999,-99.99,,,-99.99,,2013-03-06 19:53:00,
2013-03-06 15:02:00,52.0,-99.9,29.83,WNW,295,14.0,25.0,-999,-99.99,,,-99.99,,2013-03-06 20:02:00,
2013-03-06 15:12:00,51.0,-99.9,29.83,West,274,17.0,27.0,-999,-99.99,,,-99.99,,2013-03-06 20:12:00,
2013-03-06 15:23:00,51.0,-99.9,29.84,West,275,17.0,30.0,-999,-99.99,,,-99.99,,2013-03-06 20:23:00,
2013-03-06 15:33:00,53.0,-99.9,29.84,NW,312,12.0,21.0,-999,-99.99,,,-99.99,,2013-03-06 20:33:00,
2013-03-06 15:43:00,51.0,-99.9,29.84,NW,312,17.0,27.0,-999,-99.99,,,-99.99,,2013-03-06 20:43:00,
2013-03-06 15:53:00,52.0,-99.9,29.84,WNW,284,14.0,25.0,-999,-99.99,,,-99.99,,2013-03-06 20:53:00,
2013-03-06 16:02:00,52.0,-99.9,29.85,WNW,293,11.0,28.0,-999,-99.99,,,-99.99,,2013-03-06 21:02:00,
2013-03-06 16:12:00,51.0,-99.9,29.85,WNW,284,16.0,30.0,-999,-99.99,,,-99.99,,2013-03-06 21:12:00,
2013-03-06 16:23:00,52.0,-99.9,29.85,NW,310,13.0,25.0,-999,-99.99,,,-99.99,,2013-03-06 21:23:00,
2013-03-06 16:33:00,52.0,-99.9,29.85,WNW,301,11.0,22.0,-999,-99.99,,,-99.99,,2013-03-06 21:33:00,
2013-03-06 16:43:00,53.0,-99.9,29.86,NW,318,15.0,25.0,-999,-99.99,,,-99.99,,2013-03-06 21:43:00,
2013-03-06 16:52:00,52.0,-99.9,29.85,NW,312,16.0,25.0,-999,-99.99,,,-99.99,,2013-03-06 21:52:00,
2013-03-06 17:02:00,53.0,-99.9,29.86,NW,310,16.0,25.0,-999,-99.99,,,-99.99,,2013-03-06 22:02:00,
2013-03-06 17:12:00,52.0,-99.9,29.87,WNW,289,14.0,23.0,-999,-99.99,,,-99.99,,2013-03-06 22:12:00,
2013-03-06 17:22:00,52.0,-99.9,29.87,NW,304,12.0,22.0,-999,-99.99,,,-99.99,,2013-03-06 22:22:00,
2013-03-06 17:32:00,52.0,-99.9,29.88,NW,307,17.0,24.0,-999,-99.99,,,-99.99,,2013-03-06 22:32:00,
2013-03-06 17:42:00,52.0,-99.9,29.88,NW,311,12.0,28.0,-999,-99.99,,,-99.99,,2013-03-06 22:42:00,
2013-03-06 17:52:00,53.0,-99.9,29.88,NW,308,10.0,28.0,-999,-99.99,,,-99.99,,2013-03-06 22:52:00,
2013-03-06 18:02:00,52.0,-99.9,29.89,WNW,301,15.0,22.0,-999,-99.99,,,-99.99,,2013-03-06 23:02:00,
2013-03-06 18:11:00,52.0,-99.9,29.89,WNW,282,12.0,20.0,-999,-99.99,,,-99.99,,2013-03-06 23:11:00,
2013-03-06 18:22:00,52.0,-99.9,29.90,WNW,296,11.0,25.0,-999,-99.99,,,-99.99,,2013-03-06 23:22:00,
2013-03-06 18:32:00,51.0,-99.9,29.91,NW,304,13.0,24.0,-999,-99.99,,,-99.99,,2013-03-06 23:32:00,
2013-03-06 18:42:00,51.0,-99.9,29.92,WNW,297,12.0,19.0,-999,-99.99,,,-99.99,,2013-03-06 23:42:00,
2013-03-06 18:52:00,51.0,-99.9,29.92,NW,309,13.0,24.0,-999,-99.99,,,-99.99,,2013-03-06 23:52:00,
2013-03-06 19:02:00,50.0,-99.9,29.93,NW,306,13.0,20.0,-999,-99.99,,,-99.99,,2013-03-07 00:02:00,
2013-03-06 19:11:00,50.0,-99.9,29.94,NW,310,8.0,19.0,-999,-99.99,,,-99.99,,2013-03-07 00:11:00,
2013-03-06 19:22:00,50.0,-99.9,29.95,WNW,303,9.0,17.0,-999,-99.99,,,-99.99,,2013-03-07 00:22:00,
2013-03-06 19:32:00,49.0,-99.9,29.96,WNW,303,9.0,14.0,-999,-99.99,,,-99.99,,2013-03-07 00:32:00,
2013-03-06 19:42:00,49.0,-99.9,29.96,WNW,303,10.0,23.0,-999,-99.99,,,-99.99,,2013-03-07 00:42:00,
2013-03-06 19:52:00,49.0,-99.9,29.96,NW,313,11.0,16.0,-999,-99.99,,,-99.99,,2013-03-07 00:52:00,
2013-03-06 20:02:00,49.0,-99.9,29.97,NW,309,10.0,20.0,-999,-99.99,,,-99.99,,2013-03-07 01:02:00,
2013-03-06 20:12:00,49.0,-99.9,29.98,NW,307,11.0,18.0,-999,-99.99,,,-99.99,,2013-03-07 01:12:00,
2013-03-06 20:22:00,49.0,-99.9,29.98,NW,311,9.0,17.0,-999,-99.99,,,-99.99,,2013-03-07 01:22:00,
2013-03-06 20:32:00,49.0,-99.9,29.99,NW,310,9.0,14.0,-999,-99.99,,,-99.99,,2013-03-07 01:32:00,
2013-03-06 20:42:00,48.0,-99.9,30.00,NW,312,9.0,15.0,-999,-99.99,,,-99.99,,2013-03-07 01:42:00,
2013-03-06 20:52:00,48.0,-99.9,30.00,NW,305,8.0,19.0,-999,-99.99,,,-99.99,,2013-03-07 01:52:00,
2013-03-06 21:01:00,48.0,-99.9,30.01,WNW,301,9.0,16.0,-999,-99.99,,,-99.99,,2013-03-07 02:01:00,
2013-03-06 21:11:00,48.0,-99.9,30.01,NW,306,9.0,14.0,-999,-99.99,,,-99.99,,2013-03-07 02:11:00,
2013-03-06 21:22:00,48.0,-99.9,30.02,NW,311,7.0,12.0,-999,-99.99,,,-99.99,,2013-03-07 02:22:00,
2013-03-06 21:32:00,48.0,-99.9,30.02,NW,317,9.0,18.0,-999,-99.99,,,-99.99,,2013-03-07 02:32:00,
2013-03-06 21:42:00,48.0,-99.9,30.02,NW,317,9.0,18.0,-999,-99.99,,,-99.99,,2013-03-07 02:42:00,
2013-03-06 21:52:00,48.0,-99.9,30.02,NW,317,9.0,18.0,-999,-99.99,,,-99.99,,2013-03-07 02:52:00,
2013-03-06 22:02:00,47.0,-99.9,30.03,NW,316,7.0,14.0,-999,-99.99,,,-99.99,,2013-03-07 03:02:00,
2013-03-06 22:12:00,47.0,-99.9,30.04,NW,321,8.0,11.0,-999,-99.99,,,-99.99,,2013-03-07 03:12:00,
2013-03-06 22:22:00,47.0,-99.9,30.04,NW,321,10.0,13.0,-999,-99.99,,,-99.99,,2013-03-07 03:22:00,
2013-03-06 22:32:00,47.0,-99.9,30.04,NW,321,9.0,16.0,-999,-99.99,,,-99.99,,2013-03-07 03:32:00,
2013-03-06 22:42:00,47.0,-99.9,30.04,NW,318,7.0,13.0,-999,-99.99,,,-99.99,,2013-03-07 03:42:00,
2013-03-06 22:52:00,47.0,-99.9,30.04,NW,321,9.0,12.0,-999,-99.99,,,-99.99,,2013-03-07 03:52:00,
2013-03-06 23:02:00,46.0,-99.9,30.05,NW,321,8.0,11.0,-999,-99.99,,,-99.99,,2013-03-07 04:02:00,
2013-03-06 23:12:00,46.0,-99.9,30.05,NW,319,6.0,10.0,-999,-99.99,,,-99.99,,2013-03-07 04:12:00,
2013-03-06 23:22:00,46.0,-99.9,30.05,NW,313,6.0,10.0,-999,-99.99,,,-99.99,,2013-03-07 04:22:00,
2013-03-06 23:32:00,46.0,-99.9,30.05,NW,325,8.0,13.0,-999,-99.99,,,-99.99,,2013-03-07 04:32:00,
2013-03-06 23:42:00,46.0,-99.9,30.06,NW,313,8.0,12.0,-999,-99.99,,,-99.99,,2013-03-07 04:42:00,
2013-03-06 23:52:00,46.0,-99.9,30.06,NW,314,9.0,15.0,-999,-99.99,,,-99.99,,2013-03-07 04:52:00,